Latest Coastal Weather Observations for Swan Island

IDT60701

Issued at 1:15 am EST Tuesday 22 April 2014 (issued every 10 minutes, with the page automatically refreshed every 10 minutes)

About coastal observations | Map of coastal stations | Coastal observations for TAS | Marine services | Other Formats
Station Details ID: 092123 Name: SWAN ISLAND Lat: -40.73 Lon: 148.12 Height: 15.0 m
Data from the previous 72 hours. | See also: Recent months at Swan Island
Date/Time
EST
Temp

°C
Wind Pressure Rain
since 9am
mm
Weather Cloud Vis
km
Sea
Height
m
Swell
Dir
 
Speed
knots
Gust
knots
hPa Trend Height
m
Period
s
Dir
22/01:00am 16.7 NNW 24 29 1010.5 - 5.0 - - - - - - -
22/12:30am 16.6 N 22 27 1011.2 - 4.4 - - - - - - -
22/12:00am 17.1 N 18 25 1011.2 - 4.2 - - - - - - -
 
Date/Time
EST
Temp

°C
Wind Pressure Rain
since 9am
mm
Weather Cloud Vis
km
Sea
Height
m
Swell
Dir
 
Speed
knots
Gust
knots
hPa Trend Height
m
Period
s
Dir
21/11:30pm 16.6 N 14 16 1011.6 - 4.2 - - - - - - -
21/11:00pm 16.4 N 15 18 1011.5 - 4.2 - - - - - - -
21/10:30pm 15.9 N 13 18 1011.9 - 4.2 - - - - - - -
21/10:00pm 15.8 N 10 11 1013.0 - 4.2 - - - - - - -
21/09:30pm 15.7 N 11 12 1013.4 - 3.6 - - - - - - -
21/09:00pm 15.9 N 10 12 1013.4 - 3.4 - - - - - - -
21/08:30pm 15.9 N 8 10 1013.8 - 3.4 - - - - - - -
21/08:00pm 15.8 N 9 10 1013.6 - 3.4 - - - - - - -
21/07:30pm 15.5 N 8 9 1014.0 - 3.4 - - - - - - -
21/07:00pm 15.3 N 9 13 1013.8 - 3.4 - - - - - - -
21/06:30pm 15.4 N 14 15 1013.9 - 3.4 - - - - - - -
21/06:00pm 15.3 N 13 15 1014.1 - 3.4 Recent precip. - - - - - -
21/05:30pm 14.9 N 14 17 1014.3 - 3.4 - - - - - - -
21/05:00pm 14.5 N 16 20 1014.3 - 3.2 - - - - - - -
21/04:30pm 14.7 N 15 17 1014.6 - 3.2 - - - - - - -
21/04:00pm 14.7 NNW 15 18 1015.2 - 2.8 - - - - - - -
21/03:30pm 14.4 NNW 13 18 1015.5 - 2.6 - - - - - - -
21/03:00pm 14.3 E 6 8 1015.5 - 2.2 - - - - - - -
21/02:30pm 14.1 E 7 9 1015.8 - 2.2 - - - - - - -
21/02:00pm 13.6 E 7 9 1016.0 - 2.2 - - - - - - -
21/01:30pm 13.8 ESE 8 10 1016.5 - 2.2 - - - - - - -
21/01:00pm 13.6 ESE 8 10 1016.6 - 2.2 - - - - - - -
21/12:30pm 13.3 ESE 7 10 1017.2 - 2.2 - - - - - - -
21/12:00pm 12.7 SE 7 9 1017.7 - 2.2 - - - - - - -
21/11:30am 13.1 ESE 6 8 1017.8 - 2.2 - - - - - - -
21/11:00am 12.3 SE 4 6 1018.3 - 2.2 - - - - - - -
21/10:30am 11.8 ESE 5 7 1018.5 - 2.2 - - - - - - -
21/10:00am 12.0 E 5 6 1018.8 - 1.2 - - - - - - -
21/09:30am 12.4 E 6 7 1019.0 - 0.2 - - - - - - -
21/09:00am 12.9 E 3 6 1019.0 - 1.6 Rain - - - - - -
21/08:30am 13.2 E 3 5 1018.9 - 1.0 - - - - - - -
21/08:00am 13.4 ENE 4 5 1018.6 - 1.0 - - - - - - -
21/07:30am 13.4 SE 4 5 1018.5 - 1.0 - - - - - - -
21/07:00am 13.0 SSE 4 7 1018.2 - 1.0 - - - - - - -
21/06:30am 12.4 SSE 5 7 1018.0 - 1.0 - - - - - - -
21/06:00am 11.8 S 5 7 1017.6 - 1.0 - - - - - - -
21/05:30am 11.6 SSE 5 7 1017.5 - 1.0 - - - - - - -
21/05:00am 11.3 S 5 7 1017.2 - 1.0 - - - - - - -
21/04:30am 11.1 S 5 7 1016.9 - 1.0 - - - - - - -
21/04:00am 10.7 S 5 7 1016.4 - 1.0 - - - - - - -
21/03:30am 11.8 SW 3 5 1016.2 - 1.0 - - - - - - -
21/03:00am 13.1 W 9 15 1015.7 - 1.0 - - - - - - -
21/02:30am 13.5 W 11 15 1016.0 - 1.0 - - - - - - -
21/02:00am 11.9 WSW 6 11 1015.8 - 1.0 - - - - - - -
21/01:30am 11.9 WSW 5 7 1015.9 - 1.0 - - - - - - -
21/01:00am 12.1 W 6 7 1015.7 - 1.0 - - - - - - -
21/12:30am 12.1 WSW 5 7 1015.5 - 1.0 - - - - - - -
21/12:00am 12.7 WSW 6 9 1015.2 - 1.0 - - - - - - -
 
Date/Time
EST
Temp

°C
Wind Pressure Rain
since 9am
mm
Weather Cloud Vis
km
Sea
Height
m
Swell
Dir
 
Speed
knots
Gust
knots
hPa Trend Height
m
Period
s
Dir
20/11:30pm 13.2 WSW 5 8 1015.3 - 1.0 - - - - - - -
20/11:00pm 14.0 W 6 9 1014.9 - 1.0 - - - - - - -
20/10:30pm 14.6 W 8 11 1014.8 - 1.0 - - - - - - -
20/10:00pm 15.3 W 13 17 1014.5 - 1.0 - - - - - - -
20/09:30pm 15.6 W 13 18 1014.3 - 1.0 - - - - - - -
20/09:00pm 15.9 W 13 19 1013.9 - 1.0 - - - - - - -
20/08:30pm 15.9 WNW 15 21 1013.7 - 1.0 - - - - - - -
20/08:00pm 15.9 WNW 16 19 1013.3 - 1.0 - - - - - - -
20/07:30pm 15.8 WNW 17 24 1013.0 - 1.0 - - - - - - -
20/07:00pm 15.8 WNW 17 24 1012.7 - 1.0 - - - - - - -
20/06:30pm 14.9 WNW 17 24 1012.5 - 1.0 - - - - - - -
20/06:06pm 14.2 W 17 27 1012.4 - 1.0 - - - - - - -
20/06:00pm 14.6 W 18 27 1012.3 - 1.0 - - - - - - -
20/05:57pm 15.2 WNW 17 27 1012.3 - 1.0 - - - - - - -
20/05:30pm 15.7 WNW 18 27 1012.1 - 1.0 - - - - - - -
20/05:00pm 15.7 WNW 18 29 1011.6 - 1.0 - - - - - - -
20/04:54pm 15.8 WNW 18 29 1011.7 - 1.0 - - - - - - -
20/04:30pm 15.8 WNW 18 26 1011.6 - 1.0 - - - - - - -
20/04:00pm 15.6 WNW 17 23 1011.4 - 1.0 - - - - - - -
20/03:30pm 16.3 WNW 17 25 1011.3 - 1.0 - - - - - - -
20/03:00pm 16.2 WNW 15 21 1011.2 - 1.0 - - - - - - -
20/02:30pm 16.4 WNW 17 24 1011.3 - 1.0 - - - - - - -
20/02:00pm 16.1 WNW 16 23 1011.2 - 1.0 - - - - - - -
20/01:30pm 15.8 WNW 16 24 1011.5 - 1.0 - - - - - - -
20/01:00pm 15.0 WNW 14 19 1011.7 - 1.0 - - - - - - -
20/12:30pm 14.2 W 13 23 1012.2 - 1.0 - - - - - - -
20/12:00pm 15.3 W 11 16 1012.4 - 0.8 - - - - - - -
20/11:30am 14.7 W 10 20 1012.9 - 0.8 - - - - - - -
20/11:00am 13.9 W 6 8 1013.2 - 0.8 - - - - - - -
20/10:30am 13.0 W 9 13 1013.6 - 0.6 - - - - - - -
20/10:00am 12.4 W 7 10 1013.7 - 0.6 - - - - - - -
20/09:30am 13.0 WSW 7 10 1013.7 - 0.0 - - - - - - -
20/09:00am 13.1 W 6 11 1013.8 - 0.8 Recent precip. - - - - - -
20/08:30am 11.8 W 5 10 1014.0 - 0.6 - - - - - - -
20/08:00am 11.7 WSW 9 13 1013.9 - 0.4 - - - - - - -
20/07:30am 12.3 W 6 8 1013.8 - 0.0 - - - - - - -
20/07:00am 12.4 W 6 9 1013.6 - 0.0 - - - - - - -
20/06:30am 11.4 WSW 5 8 1013.5 - 0.0 - - - - - - -
20/06:00am 11.4 WSW 6 10 1013.4 - 0.0 - - - - - - -
20/05:30am 11.9 WSW 7 12 1013.5 - 0.0 - - - - - - -
20/05:00am 12.4 W 8 14 1013.3 - 0.0 - - - - - - -
20/04:30am 11.8 WSW 8 11 1013.4 - 0.0 - - - - - - -
20/04:00am 12.1 WSW 9 13 1013.2 - 0.0 - - - - - - -
20/03:30am 12.6 WSW 13 19 1013.3 - 0.0 - - - - - - -
20/03:00am 13.5 W 17 24 1013.1 - 0.0 - - - - - - -
20/02:30am 13.6 WNW 13 21 1013.4 - 0.0 - - - - - - -
20/02:00am 13.4 WNW 12 20 1013.5 - 0.0 - - - - - - -
20/01:30am 13.5 WNW 14 21 1014.0 - 0.0 - - - - - - -
20/01:00am 13.4 WNW 13 20 1014.0 - 0.0 - - - - - - -
20/12:30am 13.2 WNW 10 15 1014.4 - 0.0 - - - - - - -
20/12:00am 13.5 WNW 12 19 1014.4 - 0.0 - - - - - - -
 
Date/Time
EST
Temp

°C
Wind Pressure Rain
since 9am
mm
Weather Cloud Vis
km
Sea
Height
m
Swell
Dir
 
Speed
knots
Gust
knots
hPa Trend Height
m
Period
s
Dir
19/11:30pm 13.8 WNW 8 15 1014.6 - 0.0 - - - - - - -
19/11:00pm 13.9 WNW 9 14 1014.6 - 0.0 - - - - - - -
19/10:30pm 13.2 WNW 5 8 1015.0 - 0.0 - - - - - - -
19/10:00pm 12.7 W 7 9 1015.2 - 0.0 - - - - - - -
19/09:30pm 13.3 WNW 8 11 1015.4 - 0.0 - - - - - - -
19/09:00pm 13.6 WNW 7 12 1015.3 - 0.0 - - - - - - -
19/08:30pm 13.2 WNW 6 10 1015.4 - 0.0 - - - - - - -
19/08:00pm 13.2 WNW 7 9 1015.2 - 0.0 - - - - - - -
19/07:30pm 12.8 WNW 6 9 1015.3 - 0.0 - - - - - - -
19/07:00pm 12.9 WNW 7 10 1015.4 - 0.0 - - - - - - -
19/06:30pm 12.8 WNW 6 10 1015.3 - 0.0 - - - - - - -
19/06:00pm 13.0 WNW 7 10 1015.0 - 0.0 - - - - - - -
19/05:30pm 13.2 WNW 8 11 1015.0 - 0.0 - - - - - - -
19/05:00pm 13.7 WNW 8 12 1014.8 - 0.0 - - - - - - -
19/04:30pm 14.4 WNW 8 13 1014.9 - 0.0 - - - - - - -
19/04:00pm 14.9 WNW 9 13 1014.9 - 0.0 - - - - - - -
19/03:30pm 15.2 WNW 9 12 1015.0 - 0.0 - - - - - - -
19/03:00pm 15.9 WNW 8 14 1014.8 - 0.0 - - - - - - -
19/02:30pm 15.7 WNW 10 14 1014.8 - 0.0 - - - - - - -
19/02:00pm 16.2 WNW 10 14 1014.7 - 0.0 - - - - - - -
19/01:30pm 16.3 W 9 14 1014.9 - 0.0 - - - - - - -
19/01:00pm 15.9 W 8 13 1015.1 - 0.0 - - - - - - -
19/12:30pm 16.0 W 8 13 1015.5 - 0.0 - - - - - - -
19/12:00pm 15.7 W 8 13 1015.6 - 0.0 - - - - - - -
19/11:30am 15.2 W 9 14 1015.9 - 0.0 - - - - - - -
19/11:00am 14.8 W 11 14 1015.9 - 0.0 - - - - - - -
19/10:30am 14.3 W 9 13 1016.0 - 0.0 - - - - - - -
19/10:00am 14.1 W 8 13 1016.0 - 0.0 - - - - - - -
19/09:30am 13.6 W 8 12 1016.1 - 0.0 - - - - - - -
19/09:00am 12.9 W 8 13 1015.8 - 0.8 - - - - - - -
19/08:30am 12.4 WSW 7 11 1015.9 - 0.8 - - - - - - -
19/08:00am 11.3 WSW 7 11 1015.7 - 0.8 - - - - - - -
19/07:30am 10.4 WSW 6 9 1015.4 - 0.8 - - - - - - -
19/07:00am 10.1 WSW 9 13 1014.9 - 0.8 - - - - - - -
19/06:30am 9.8 WSW 9 13 1014.8 - 0.8 - - - - - - -
19/06:00am 9.5 WSW 9 13 1014.5 - 0.8 - - - - - - -
19/05:30am 9.2 WSW 7 11 1014.5 - 0.8 - - - - - - -
19/05:00am 9.1 WSW 7 9 1014.3 - 0.8 - - - - - - -
19/04:30am 9.2 WSW 7 11 1014.1 - 0.8 - - - - - - -
19/04:00am 9.6 WSW 9 14 1013.9 - 0.8 - - - - - - -
19/03:30am 9.8 WSW 9 14 1013.8 - 0.8 - - - - - - -
19/03:00am 10.0 WSW 9 13 1013.8 - 0.8 - - - - - - -
19/02:30am 10.1 WSW 9 14 1013.9 - 0.8 - - - - - - -
19/02:00am 9.9 WSW 10 14 1013.6 - 0.8 - - - - - - -
19/01:30am 10.2 WSW 10 15 1013.7 - 0.8 - - - - - - -

Other Formats:

Comma delimited format used in spreadsheet applications
http://www.bom.gov.au/fwo/IDT60701/IDT60701.95985.axf

JavaScript Object Notation format (JSON) in row-major order
http://www.bom.gov.au/fwo/IDT60701/IDT60701.95985.json